createdAt,value
2019-01-13T00:00:50.321Z,11.40
2019-01-13T00:03:19.570Z,12.30
2019-01-13T00:05:48.049Z,11.27
2019-01-13T00:08:16.757Z,11.00
2019-01-13T00:10:45.349Z,12.30
2019-01-13T00:13:13.895Z,8.63
2019-01-13T00:15:42.547Z,10.93
2019-01-13T00:18:11.106Z,13.30
2019-01-13T00:20:39.723Z,13.00
2019-01-13T00:23:08.272Z,11.50
2019-01-13T00:25:36.935Z,11.73
2019-01-13T00:28:05.647Z,12.67
2019-01-13T00:30:34.206Z,14.20
2019-01-13T00:33:02.833Z,13.10
2019-01-13T00:35:32.031Z,15.43
2019-01-13T00:38:00.796Z,14.70
2019-01-13T00:40:31.842Z,17.77
2019-01-13T00:43:01.885Z,17.33
2019-01-13T00:45:32.055Z,17.60
2019-01-13T00:48:00.820Z,16.80
2019-01-13T00:50:29.597Z,16.40
2019-01-13T00:52:58.284Z,16.80
2019-01-13T00:55:26.680Z,18.27
2019-01-13T00:57:55.280Z,17.97
2019-01-13T01:00:26.750Z,18.80
2019-01-13T01:02:54.247Z,17.73
2019-01-13T01:05:23.430Z,18.77
2019-01-13T01:07:52.282Z,18.87
2019-01-13T01:10:20.960Z,17.27
2019-01-13T01:12:49.699Z,17.43
2019-01-13T01:15:21.337Z,19.27
2019-01-13T01:17:49.880Z,19.07
2019-01-13T01:20:21.334Z,18.97
2019-01-13T01:22:49.789Z,20.07
2019-01-13T01:25:18.309Z,18.73
2019-01-13T01:27:48.515Z,19.93
2019-01-13T01:30:17.932Z,18.87
2019-01-13T01:32:49.561Z,20.50
2019-01-13T01:35:18.128Z,19.77
2019-01-13T01:37:47.019Z,21.50
2019-01-13T01:40:18.338Z,21.07
2019-01-13T01:42:47.195Z,21.60
2019-01-13T01:45:16.337Z,20.60
2019-01-13T01:47:44.948Z,21.47
2019-01-13T01:50:14.050Z,20.73
2019-01-13T01:52:42.604Z,20.03
2019-01-13T01:55:12.421Z,19.83
2019-01-13T01:57:41.024Z,18.90
2019-01-13T02:00:13.835Z,19.97
2019-01-13T02:02:42.396Z,20.23
2019-01-13T02:05:10.933Z,18.60
2019-01-13T02:07:39.487Z,20.93
2019-01-13T02:10:09.575Z,20.30
2019-01-13T02:12:38.214Z,22.17
2019-01-13T02:15:07.612Z,20.97
2019-01-13T02:17:36.236Z,18.97
2019-01-13T02:20:06.214Z,20.67
2019-01-13T02:22:35.066Z,19.50
2019-01-13T02:25:04.471Z,20.47
2019-01-13T02:27:33.162Z,19.77
2019-01-13T02:30:01.973Z,16.07
2019-01-13T02:32:30.641Z,18.00
2019-01-13T02:34:59.097Z,20.30
2019-01-13T02:37:27.558Z,17.93
2019-01-13T02:39:56.147Z,17.97
2019-01-13T02:42:24.579Z,20.30
2019-01-13T02:44:52.979Z,17.03
2019-01-13T02:47:21.433Z,17.23
2019-01-13T02:49:50.169Z,16.13
2019-01-13T02:52:18.662Z,15.70
2019-01-13T02:54:50.796Z,16.10
2019-01-13T02:57:19.397Z,15.57
2019-01-13T02:59:47.822Z,16.10
2019-01-13T03:02:16.390Z,15.83
2019-01-13T03:04:44.961Z,15.30
2019-01-13T03:07:13.405Z,15.73
2019-01-13T03:09:42.111Z,14.93
2019-01-13T03:12:10.861Z,15.37
2019-01-13T03:14:39.392Z,12.87
2019-01-13T03:17:07.921Z,13.40
2019-01-13T03:19:36.764Z,14.10
2019-01-13T03:22:05.191Z,12.20
2019-01-13T03:24:33.745Z,14.87
2019-01-13T03:27:02.319Z,15.13
2019-01-13T03:29:30.942Z,15.43
2019-01-13T03:32:01.821Z,15.23
2019-01-13T03:34:30.408Z,16.23
2019-01-13T03:36:58.947Z,15.57
2019-01-13T03:39:27.571Z,17.50
2019-01-13T03:41:56.110Z,16.03
2019-01-13T03:44:24.582Z,15.83
2019-01-13T03:46:53.056Z,14.63
2019-01-13T03:49:21.704Z,15.67
2019-01-13T03:51:50.243Z,15.83
2019-01-13T03:54:18.830Z,15.30
2019-01-13T03:56:47.518Z,15.80
2019-01-13T03:59:16.061Z,15.00
2019-01-13T04:01:44.525Z,15.93
2019-01-13T04:04:13.070Z,15.00
2019-01-13T04:06:41.510Z,15.53
2019-01-13T04:09:10.116Z,15.20
2019-01-13T04:11:38.592Z,15.33
2019-01-13T04:14:07.157Z,14.43
2019-01-13T04:16:35.692Z,14.37
2019-01-13T04:19:04.116Z,13.10
2019-01-13T04:21:32.745Z,12.60
2019-01-13T04:24:02.331Z,12.43
2019-01-13T04:26:30.976Z,11.07
2019-01-13T04:28:59.504Z,11.23
2019-01-13T04:31:28.091Z,11.20
2019-01-13T04:33:56.603Z,10.83
2019-01-13T04:36:25.102Z,10.17
2019-01-13T04:38:53.563Z,11.23
2019-01-13T04:41:22.115Z,10.17
2019-01-13T04:43:50.661Z,10.10
2019-01-13T04:46:19.173Z,11.03
2019-01-13T04:48:48.064Z,10.93
2019-01-13T04:51:16.553Z,10.67
2019-01-13T04:53:45.026Z,10.83
2019-01-13T04:56:13.661Z,9.90
2019-01-13T04:58:42.361Z,10.27
2019-01-13T05:01:10.825Z,10.63
2019-01-13T05:03:39.423Z,9.83
2019-01-13T05:06:08.611Z,10.00
2019-01-13T05:08:37.051Z,9.20
2019-01-13T05:11:05.858Z,10.53
2019-01-13T05:13:34.272Z,8.30
2019-01-13T05:16:02.927Z,10.27
2019-01-13T05:18:31.356Z,7.93
2019-01-13T05:20:59.748Z,8.03
2019-01-13T05:23:28.262Z,9.93
2019-01-13T05:25:56.801Z,9.13
2019-01-13T05:28:25.315Z,10.60
2019-01-13T05:30:53.688Z,7.80
2019-01-13T05:33:22.167Z,9.30
2019-01-13T05:35:50.546Z,8.67
2019-01-13T05:38:18.992Z,7.80
2019-01-13T05:40:47.372Z,7.27
2019-01-13T05:43:15.790Z,7.63
2019-01-13T05:45:44.276Z,6.33
2019-01-13T05:48:12.975Z,4.93
2019-01-13T05:50:41.328Z,7.17
2019-01-13T05:53:09.905Z,8.00
2019-01-13T05:55:38.645Z,6.73
2019-01-13T05:58:07.025Z,6.83
2019-01-13T06:00:40.190Z,6.60
2019-01-13T06:03:08.836Z,6.23
2019-01-13T06:05:37.334Z,6.57
2019-01-13T06:08:05.718Z,7.00
2019-01-13T06:10:34.145Z,7.33
2019-01-13T06:13:02.614Z,6.20
2019-01-13T06:15:30.990Z,5.10
2019-01-13T06:17:59.500Z,5.53
2019-01-13T06:20:27.972Z,5.33
2019-01-13T06:22:56.357Z,6.43
2019-01-13T06:25:24.901Z,4.77
2019-01-13T06:27:53.384Z,5.00
2019-01-13T06:30:22.343Z,4.83
2019-01-13T06:32:50.794Z,5.23
2019-01-13T06:35:19.312Z,5.00
2019-01-13T06:37:48.259Z,6.17
2019-01-13T06:40:17.657Z,4.97
2019-01-13T06:42:46.068Z,4.20
2019-01-13T06:45:15.799Z,4.27
2019-01-13T06:47:44.353Z,4.03
2019-01-13T06:50:12.734Z,4.63
2019-01-13T06:52:41.168Z,5.33
2019-01-13T06:55:09.601Z,5.50
2019-01-13T06:57:38.110Z,5.83
2019-01-13T07:00:11.597Z,5.23
2019-01-13T07:02:40.034Z,5.80
2019-01-13T07:05:08.483Z,6.23
2019-01-13T07:07:37.532Z,5.20
2019-01-13T07:10:06.922Z,6.30
2019-01-13T07:12:35.295Z,5.97
2019-01-13T07:15:04.820Z,7.00
2019-01-13T07:17:33.291Z,5.87
2019-01-13T07:20:02.071Z,6.67
2019-01-13T07:22:30.483Z,6.27
2019-01-13T07:24:59.044Z,7.03
2019-01-13T07:27:27.580Z,6.90
2019-01-13T07:29:56.069Z,6.40
2019-01-13T07:32:24.447Z,6.40
2019-01-13T07:34:52.963Z,7.27
2019-01-13T07:37:21.359Z,6.67
2019-01-13T07:39:49.843Z,6.87
2019-01-13T07:42:18.382Z,6.33
2019-01-13T07:44:46.915Z,7.23
2019-01-13T07:47:15.341Z,5.80
2019-01-13T07:49:43.993Z,6.37
2019-01-13T07:52:12.766Z,5.80
2019-01-13T07:54:41.197Z,5.73
2019-01-13T07:57:09.747Z,5.90
2019-01-13T07:59:38.379Z,5.63
2019-01-13T08:02:07.075Z,6.53
2019-01-13T08:04:35.563Z,6.13
2019-01-13T08:07:04.046Z,5.43
2019-01-13T08:09:32.461Z,7.10
2019-01-13T08:12:00.930Z,5.93
2019-01-13T08:14:29.424Z,6.00
2019-01-13T08:17:03.318Z,6.77
2019-01-13T08:19:31.825Z,6.57
2019-01-13T08:24:53.972Z,6.13
2019-01-13T08:27:22.541Z,6.40
2019-01-13T08:29:50.963Z,8.03
2019-01-13T08:32:24.968Z,5.83
2019-01-13T08:34:49.593Z,7.27
2019-01-13T08:37:21.243Z,7.00
2019-01-13T08:39:51.466Z,8.77
2019-01-13T08:42:20.068Z,8.43
2019-01-13T08:44:48.609Z,7.57
2019-01-13T08:47:17.164Z,6.47
2019-01-13T08:49:46.126Z,8.43
2019-01-13T08:52:22.347Z,8.57
2019-01-13T08:54:51.330Z,7.33
2019-01-13T08:57:20.048Z,7.10
2019-01-13T08:59:48.538Z,7.73
2019-01-13T09:02:20.989Z,7.60
2019-01-13T09:04:49.595Z,7.30
2019-01-13T09:07:18.299Z,6.93
2019-01-13T09:09:46.660Z,6.90
2019-01-13T09:12:15.108Z,5.53
2019-01-13T09:14:43.746Z,7.10
2019-01-13T09:17:12.264Z,6.60
2019-01-13T09:19:43.563Z,6.13
2019-01-13T09:22:12.699Z,5.93
2019-01-13T09:24:41.244Z,6.83
2019-01-13T09:27:09.794Z,6.40
2019-01-13T09:29:42.449Z,5.90
2019-01-13T09:32:08.943Z,4.67
2019-01-13T09:34:37.790Z,5.77
2019-01-13T09:37:06.270Z,6.23
2019-01-13T09:39:34.790Z,5.40
2019-01-13T09:42:03.535Z,5.47
2019-01-13T09:44:32.015Z,5.93
2019-01-13T09:47:00.659Z,4.77
2019-01-13T09:49:29.189Z,5.07
2019-01-13T09:51:57.774Z,5.07
2019-01-13T09:54:26.387Z,4.97
2019-01-13T09:56:54.967Z,5.40
2019-01-13T09:59:23.699Z,4.97
2019-01-13T10:01:52.395Z,5.27
2019-01-13T10:04:20.977Z,5.13
2019-01-13T10:06:49.575Z,5.27
2019-01-13T10:09:19.518Z,5.80
2019-01-13T10:11:49.745Z,4.87
2019-01-13T10:14:18.147Z,5.50
2019-01-13T10:16:46.757Z,5.50
2019-01-13T10:19:15.418Z,5.10
2019-01-13T10:21:44.129Z,5.63
2019-01-13T10:24:12.748Z,4.67
2019-01-13T10:26:41.550Z,5.97
2019-01-13T10:29:13.060Z,6.10
2019-01-13T10:31:44.858Z,5.37
2019-01-13T10:34:13.654Z,5.47
2019-01-13T10:36:43.014Z,6.37
2019-01-13T10:39:14.269Z,5.80
2019-01-13T10:44:43.977Z,6.10
2019-01-13T10:47:25.792Z,6.53
2019-01-13T10:49:54.757Z,7.03
2019-01-13T10:52:25.234Z,5.80
2019-01-13T10:54:54.223Z,5.67
2019-01-13T10:57:23.086Z,6.07
2019-01-13T10:59:51.801Z,5.40
2019-01-13T11:02:20.666Z,4.77
2019-01-13T11:04:49.382Z,5.27
2019-01-13T11:07:17.983Z,5.50
2019-01-13T11:09:46.539Z,5.80
2019-01-13T11:12:16.413Z,5.40
2019-01-13T11:14:44.893Z,5.60
2019-01-13T11:17:14.066Z,5.60
2019-01-13T11:19:42.755Z,5.80
2019-01-13T11:22:11.415Z,5.27
2019-01-13T11:24:39.910Z,5.40
2019-01-13T11:27:08.446Z,5.43
2019-01-13T11:30:03.943Z,5.30
2019-01-13T11:32:32.424Z,4.77
2019-01-13T11:35:00.922Z,4.80
2019-01-13T11:37:31.291Z,4.47
2019-01-13T11:40:02.935Z,5.37
2019-01-13T11:42:31.544Z,5.27
2019-01-13T11:45:00.054Z,5.03
2019-01-13T11:47:28.914Z,4.47
2019-01-13T11:49:57.294Z,4.20
2019-01-13T11:52:25.894Z,5.03
2019-01-13T11:54:54.323Z,5.10
2019-01-13T11:57:23.646Z,4.83
2019-01-13T11:59:52.303Z,4.33
2019-01-13T12:02:22.176Z,4.70
2019-01-13T12:04:50.558Z,3.90
2019-01-13T12:07:19.247Z,5.07
2019-01-13T12:09:47.902Z,4.67
2019-01-13T12:12:20.698Z,4.37
2019-01-13T12:14:49.198Z,4.57
2019-01-13T12:17:18.013Z,4.33
2019-01-13T12:19:47.547Z,4.27
2019-01-13T12:22:16.201Z,4.00
2019-01-13T12:24:45.398Z,5.37
2019-01-13T12:27:14.154Z,3.77
2019-01-13T12:29:45.408Z,4.30
2019-01-13T12:32:15.778Z,4.40
2019-01-13T12:34:44.397Z,4.80
2019-01-13T12:37:15.240Z,4.07
2019-01-13T12:39:43.892Z,3.67
2019-01-13T12:42:12.576Z,3.20
2019-01-13T12:44:41.198Z,3.90
2019-01-13T12:47:09.971Z,3.77
2019-01-13T12:49:38.899Z,3.67
2019-01-13T12:52:09.819Z,4.13
2019-01-13T12:54:41.948Z,4.07
2019-01-13T12:57:11.800Z,3.70
2019-01-13T12:59:40.393Z,3.60
2019-01-13T13:02:09.196Z,4.33
2019-01-13T13:04:37.966Z,3.87
2019-01-13T13:07:06.825Z,4.00
2019-01-13T13:09:41.483Z,3.93
2019-01-13T13:12:07.972Z,3.97
2019-01-13T13:14:38.780Z,4.97
2019-01-13T13:17:10.160Z,3.90
2019-01-13T13:19:44.877Z,4.03
2019-01-13T13:22:16.710Z,4.27
2019-01-13T13:24:45.941Z,4.87
2019-01-13T13:27:14.905Z,4.23
2019-01-13T13:29:44.992Z,3.83
2019-01-13T13:32:13.692Z,4.13
2019-01-13T13:34:45.028Z,4.30
2019-01-13T13:37:41.485Z,5.20
2019-01-13T13:40:41.303Z,4.40
2019-01-13T13:44:03.266Z,3.90
2019-01-13T13:46:48.756Z,4.00
2019-01-13T13:49:09.167Z,4.73
2019-01-13T13:51:43.269Z,4.27
2019-01-13T13:54:25.938Z,4.73
2019-01-13T13:56:59.867Z,3.70
2019-01-13T13:59:37.533Z,4.53
2019-01-13T14:05:38.637Z,4.10
2019-01-13T14:08:14.586Z,4.57
2019-01-13T14:10:43.659Z,4.30
2019-01-13T14:13:15.634Z,4.63
2019-01-13T14:15:46.144Z,3.33
2019-01-13T14:18:14.983Z,4.37
2019-01-13T14:20:43.839Z,3.67
2019-01-13T14:23:38.167Z,3.37
2019-01-13T14:26:10.309Z,3.37
2019-01-13T14:28:38.942Z,2.90
2019-01-13T14:31:07.975Z,3.70
2019-01-13T14:33:36.821Z,4.07
2019-01-13T14:36:05.912Z,3.60
2019-01-13T14:38:34.613Z,3.03
2019-01-13T14:41:03.508Z,3.30
2019-01-13T14:43:32.207Z,3.77
2019-01-13T14:46:00.886Z,3.80
2019-01-13T14:48:31.001Z,4.30
2019-01-13T14:51:11.206Z,3.37
2019-01-13T14:53:43.425Z,3.20
2019-01-13T14:57:10.197Z,3.33
2019-01-13T15:04:05.206Z,3.53
2019-01-13T15:07:23.064Z,3.07
2019-01-13T15:16:33.276Z,3.87
2019-01-13T15:19:18.953Z,3.53
2019-01-13T15:21:47.577Z,3.80
2019-01-13T15:24:24.745Z,3.80
2019-01-13T15:30:25.426Z,4.27
2019-01-13T15:32:59.223Z,4.43
2019-01-13T15:35:28.242Z,4.53
2019-01-13T15:38:24.346Z,3.50
2019-01-13T15:41:20.479Z,4.20
2019-01-13T15:44:15.431Z,3.43
2019-01-13T15:46:44.543Z,4.37
2019-01-13T15:49:16.095Z,6.43
2019-01-13T15:52:21.851Z,4.80
2019-01-13T15:54:35.763Z,6.27
2019-01-13T15:57:13.206Z,6.70
2019-01-13T15:59:41.829Z,6.00
2019-01-13T16:02:10.599Z,7.23
2019-01-13T16:04:39.098Z,6.23
2019-01-13T16:07:07.612Z,4.73
2019-01-13T16:09:36.728Z,5.50
2019-01-13T16:12:05.503Z,5.60
2019-01-13T16:14:38.989Z,3.33
2019-01-13T16:17:08.388Z,4.77
2019-01-13T16:19:37.123Z,4.83
2019-01-13T16:22:05.684Z,5.43
2019-01-13T16:24:34.412Z,4.20
2019-01-13T16:27:05.212Z,5.13
2019-01-13T16:29:34.288Z,4.53
2019-01-13T16:32:05.385Z,4.00
2019-01-13T16:34:35.353Z,4.40
2019-01-13T16:37:04.098Z,3.67
2019-01-13T16:39:41.993Z,5.20
2019-01-13T16:42:10.945Z,5.40
2019-01-13T16:44:41.749Z,5.07
2019-01-13T16:47:10.397Z,4.87
2019-01-13T16:49:39.225Z,4.13
2019-01-13T16:52:08.053Z,4.53
2019-01-13T16:54:42.033Z,3.67
2019-01-13T16:57:14.277Z,13.27
2019-01-13T16:59:44.128Z,4.47
2019-01-13T17:02:15.293Z,4.33
2019-01-13T17:04:46.716Z,3.90
2019-01-13T17:07:19.702Z,4.00
2019-01-13T17:09:49.543Z,3.90
2019-01-13T17:12:18.371Z,5.27
2019-01-13T17:14:54.359Z,3.47
2019-01-13T17:17:25.927Z,4.20
2019-01-13T17:19:54.795Z,4.20
2019-01-13T17:22:29.248Z,4.43
2019-01-13T17:25:01.278Z,5.70
2019-01-13T17:27:32.185Z,4.70
2019-01-13T17:30:01.193Z,21.60
2019-01-13T17:32:32.031Z,6.27
2019-01-13T17:35:00.775Z,4.40
2019-01-13T17:37:29.703Z,5.30
2019-01-13T17:40:03.524Z,6.40
2019-01-13T17:42:30.048Z,4.87
2019-01-13T17:45:03.621Z,6.20
2019-01-13T17:47:34.786Z,4.60
2019-01-13T17:50:07.796Z,5.87
2019-01-13T17:52:36.459Z,5.17
2019-01-13T17:55:05.704Z,5.00
2019-01-13T17:57:36.611Z,4.80
2019-01-13T18:00:06.908Z,3.43
2019-01-13T18:02:35.776Z,2.47
2019-01-13T18:05:04.425Z,2.70
2019-01-13T18:07:33.093Z,3.23
2019-01-13T18:10:01.887Z,2.83
2019-01-13T18:12:30.872Z,3.40
2019-01-13T18:15:09.873Z,4.93
2019-01-13T18:17:45.791Z,4.93
2019-01-13T18:20:15.676Z,3.53
2019-01-13T18:23:11.162Z,4.63
2019-01-13T18:25:39.415Z,4.50
2019-01-13T18:28:08.283Z,5.13
2019-01-13T18:30:44.315Z,5.07
2019-01-13T18:33:13.457Z,4.80
2019-01-13T18:35:44.049Z,4.67
2019-01-13T18:38:58.883Z,4.43
2019-01-13T18:41:29.953Z,4.13
2019-01-13T18:44:13.162Z,4.63
2019-01-13T18:46:48.364Z,4.13
2019-01-13T18:49:26.470Z,4.23
2019-01-13T18:51:53.578Z,3.83
2019-01-13T18:54:31.102Z,5.97
2019-01-13T18:57:02.768Z,4.30
2019-01-13T18:59:31.918Z,5.47
2019-01-13T19:02:03.573Z,4.03
2019-01-13T19:05:02.001Z,5.43
2019-01-13T19:07:30.687Z,4.60
2019-01-13T19:10:02.051Z,4.80
2019-01-13T19:12:30.841Z,3.57
2019-01-13T19:15:03.317Z,4.43
2019-01-13T19:17:31.783Z,5.47
2019-01-13T19:20:01.570Z,4.00
2019-01-13T19:22:30.821Z,3.07
2019-01-13T19:25:00.904Z,3.93
2019-01-13T19:27:29.378Z,4.17
2019-01-13T19:29:58.068Z,4.33
2019-01-13T19:32:26.569Z,5.00
2019-01-13T19:34:55.089Z,4.33
2019-01-13T19:37:23.825Z,4.27
2019-01-13T19:39:52.470Z,4.47
2019-01-13T19:42:21.112Z,4.27
2019-01-13T19:44:49.673Z,5.00
2019-01-13T19:47:18.227Z,4.60
2019-01-13T19:49:46.932Z,3.73
2019-01-13T19:52:16.924Z,4.83
2019-01-13T19:54:45.534Z,5.23
2019-01-13T19:57:14.221Z,7.30
2019-01-13T19:59:42.984Z,4.80
2019-01-13T20:02:11.536Z,4.57
2019-01-13T20:04:41.173Z,4.70
2019-01-13T20:07:10.166Z,4.37
2019-01-13T20:09:38.667Z,3.03
2019-01-13T20:12:07.230Z,4.23
2019-01-13T20:14:35.833Z,4.30
2019-01-13T20:17:04.413Z,4.37
2019-01-13T20:19:32.982Z,4.10
2019-01-13T20:22:17.535Z,5.20
2019-01-13T20:24:47.513Z,4.33
2019-01-13T20:27:16.399Z,5.53
2019-01-13T20:29:44.935Z,5.40
2019-01-13T20:32:13.579Z,5.63
2019-01-13T20:34:42.167Z,4.50
2019-01-13T20:37:11.036Z,6.17
2019-01-13T20:39:39.757Z,5.37
2019-01-13T20:42:08.401Z,4.70
2019-01-13T20:44:37.230Z,5.20
2019-01-13T20:47:05.839Z,4.50
2019-01-13T20:49:34.446Z,5.07
2019-01-13T20:52:03.269Z,5.50
2019-01-13T20:54:35.948Z,4.20
2019-01-13T20:57:15.251Z,4.53
2019-01-13T20:59:56.822Z,4.57
2019-01-13T21:02:32.073Z,4.10
2019-01-13T21:05:08.123Z,4.10
2019-01-13T21:07:50.463Z,5.07
2019-01-13T21:10:44.304Z,4.60
2019-01-13T21:13:29.411Z,4.30
2019-01-13T21:15:55.114Z,5.33
2019-01-13T21:18:30.592Z,4.43
2019-01-13T21:21:04.929Z,5.10
2019-01-13T21:23:35.195Z,4.17
2019-01-13T21:26:09.384Z,4.00
2019-01-13T21:28:56.971Z,4.20
2019-01-13T21:31:39.076Z,4.00
2019-01-13T21:34:16.084Z,5.00
2019-01-13T21:36:44.481Z,4.77
2019-01-13T21:39:16.273Z,4.47
2019-01-13T21:41:47.134Z,4.13
2019-01-13T21:44:15.697Z,4.07
2019-01-13T21:46:47.027Z,5.23
2019-01-13T21:49:17.061Z,5.70
2019-01-13T21:52:09.216Z,4.53
2019-01-13T21:54:38.498Z,5.17
2019-01-13T21:57:08.688Z,3.57
2019-01-13T21:59:37.458Z,4.80
2019-01-13T22:02:06.398Z,4.87
2019-01-13T22:04:38.240Z,5.53
2019-01-13T22:07:13.542Z,4.60
2019-01-13T22:09:42.717Z,4.30
2019-01-13T22:12:11.775Z,4.60
2019-01-13T22:14:43.489Z,3.60
2019-01-13T22:17:18.039Z,5.00
2019-01-13T22:19:46.787Z,4.83
2019-01-13T22:22:18.348Z,4.30
2019-01-13T22:24:47.133Z,4.37
2019-01-13T22:27:15.906Z,4.60
2019-01-13T22:29:46.011Z,4.37
2019-01-13T22:32:14.946Z,4.60
2019-01-13T22:34:46.747Z,4.00
2019-01-13T22:37:15.877Z,4.47
2019-01-13T22:39:44.565Z,4.43
2019-01-13T22:42:13.478Z,4.40
2019-01-13T22:44:43.107Z,3.40
2019-01-13T22:47:13.722Z,4.27
2019-01-13T22:49:44.528Z,5.10
2019-01-13T22:52:13.059Z,4.93
2019-01-13T22:54:41.784Z,4.00
2019-01-13T22:57:10.476Z,3.60
2019-01-13T22:59:39.409Z,4.80
2019-01-13T23:02:08.127Z,4.87
2019-01-13T23:04:36.943Z,5.13
2019-01-13T23:07:05.744Z,4.30
2019-01-13T23:09:37.513Z,4.43
2019-01-13T23:12:06.196Z,4.57
2019-01-13T23:14:34.821Z,5.50
2019-01-13T23:17:03.448Z,4.83
2019-01-13T23:19:32.279Z,4.77
2019-01-13T23:22:00.902Z,3.70
2019-01-13T23:24:31.797Z,5.03
2019-01-13T23:27:03.403Z,3.97
2019-01-13T23:29:33.343Z,4.30
2019-01-13T23:32:02.022Z,5.57
2019-01-13T23:34:30.712Z,5.17
2019-01-13T23:36:59.514Z,5.17
2019-01-13T23:39:28.171Z,4.60
2019-01-13T23:41:56.875Z,4.50
2019-01-13T23:44:25.868Z,5.00
2019-01-13T23:46:54.543Z,5.23
2019-01-13T23:49:23.345Z,4.90
2019-01-13T23:51:51.987Z,4.80
2019-01-13T23:54:20.614Z,4.97
2019-01-13T23:56:49.152Z,5.17
2019-01-13T23:59:17.841Z,4.47
